Time;durP1;ratioP1;P1;durP2;ratioP2;P2;SDS_P1;SDS_P2;PMS_P1;PMS_P2;Temp;Humidity;BMP_temperature;BMP_pressure;BME280_temperature;BME280_humidity;BME280_pressure;Samples;Min_cycle;Max_cycle;Signal;HPM_P1;HPM_P2
2022/11/05 00:10:52;;;;;;;3.27;1.70;;;;;;;11.49;84.00;98640.97;5112469;28;20216;-57
2022/11/05 00:19:05;;;;;;;1.30;1.20;;;;;;;11.41;84.37;98628.81;5112421;28;20200;-57
2022/11/05 00:27:02;;;;;;;2.40;1.50;;;;;;;11.19;84.68;98623.84;5112476;28;20700;-62
2022/11/05 00:29:29;;;;;;;1.63;1.53;;;;;;;11.05;85.30;98628.34;5112457;28;20705;-62
2022/11/05 00:31:55;;;;;;;2.40;1.63;;;;;;;11.18;85.15;98619.66;5112052;28;20288;-58
2022/11/05 00:34:22;;;;;;;1.33;1.23;;;;;;;11.17;84.84;98623.16;5112077;28;20221;-62
2022/11/05 00:36:50;;;;;;;3.27;1.80;;;;;;;11.38;84.33;98633.38;5112008;28;20229;-57
2022/11/05 00:39:17;;;;;;;1.57;1.47;;;;;;;11.36;84.07;98630.94;5112273;28;20225;-58
2022/11/05 00:44:58;;;;;;;2.63;1.97;;;;;;;11.34;83.94;98632.81;5111818;28;20201;-57
2022/11/05 00:49:55;;;;;;;2.60;0.83;;;;;;;11.17;83.68;98635.94;5088197;28;20220;-62
2022/11/05 00:55:16;;;;;;;2.30;1.00;;;;;;;11.29;83.25;98624.72;5074788;28;20220;-58
2022/11/05 00:57:43;;;;;;;3.10;1.50;;;;;;;11.34;83.11;98627.69;5111750;28;20201;-57
2022/11/05 01:00:11;;;;;;;1.60;1.33;;;;;;;11.40;83.25;98627.19;5111568;28;20217;-60
2022/11/05 01:02:38;;;;;;;1.13;1.03;;;;;;;11.40;82.97;98632.28;5111653;28;20696;-57
2022/11/05 01:05:05;;;;;;;1.67;1.30;;;;;;;11.42;83.07;98625.31;5111378;28;20661;-62
2022/11/05 01:07:33;;;;;;;1.10;1.03;;;;;;;11.48;82.66;98619.66;5111512;28;20649;-58
2022/11/05 01:10:00;;;;;;;1.67;1.57;;;;;;;11.53;82.90;98617.53;5111658;28;20228;-62
2022/11/05 01:12:27;;;;;;;1.30;1.20;;;;;;;11.52;82.75;98621.06;5111650;28;20197;-62
2022/11/05 01:14:54;;;;;;;1.30;1.20;;;;;;;11.41;83.10;98622.88;5111212;27;20221;-62
2022/11/05 01:17:21;;;;;;;0.77;0.77;;;;;;;11.49;83.24;98629.00;5111060;28;20233;-62
2022/11/05 01:19:47;;;;;;;1.30;1.20;;;;;;;11.56;82.90;98622.41;5111453;28;20218;-62
2022/11/05 01:22:14;;;;;;;1.67;1.57;;;;;;;11.49;82.86;98634.13;5110932;28;20307;-57
2022/11/05 01:24:42;;;;;;;1.53;1.43;;;;;;;11.54;83.29;98633.72;5110957;28;20221;-62
2022/11/05 01:27:09;;;;;;;2.47;1.57;;;;;;;11.66;82.88;98635.25;5111172;28;20201;-62
2022/11/05 01:29:36;;;;;;;3.97;1.20;;;;;;;11.61;83.09;98629.72;5111330;28;20269;-57
2022/11/05 01:32:03;;;;;;;1.43;1.33;;;;;;;11.63;82.75;98619.34;5111107;28;20200;-62
2022/11/05 01:34:30;;;;;;;2.57;1.83;;;;;;;11.68;82.65;98614.63;5111164;28;20217;-62
2022/11/05 01:36:56;;;;;;;0.73;0.70;;;;;;;11.63;82.49;98612.47;5110852;28;20248;-58
2022/11/05 01:39:23;;;;;;;1.97;1.33;;;;;;;11.67;82.34;98608.72;5111072;28;20681;-62
2022/11/05 01:41:51;;;;;;;1.83;1.33;;;;;;;11.75;82.19;98615.72;5110634;28;20210;-58
2022/11/05 01:45:06;;;;;;;1.57;1.47;;;;;;;11.76;82.05;98602.00;5111061;28;20642;-58
2022/11/05 01:47:39;;;;;;;1.80;1.40;;;;;;;11.46;82.89;98603.66;5062445;27;20215;-57
2022/11/05 01:50:21;;;;;;;2.17;1.43;;;;;;;11.43;83.13;98601.34;5111056;28;20277;-57
2022/11/05 01:52:50;;;;;;;1.40;1.07;;;;;;;11.17;83.68;98592.44;5110639;28;20197;-58
2022/11/05 01:55:20;;;;;;;1.70;1.50;;;;;;;10.80;85.53;98578.38;5110663;28;20225;-62
2022/11/05 01:57:49;;;;;;;2.07;1.23;;;;;;;10.95;85.07;98575.50;5110647;28;20232;-62
2022/11/05 02:00:16;;;;;;;2.53;1.43;;;;;;;10.99;84.47;98569.19;5110755;28;20766;-62
2022/11/05 02:02:44;;;;;;;0.80;0.80;;;;;;;11.08;84.43;98571.81;5110390;28;20225;-57
2022/11/05 02:05:13;;;;;;;0.77;0.70;;;;;;;11.15;84.78;98572.13;5110309;28;20244;-62
2022/11/05 02:07:41;;;;;;;0.97;0.93;;;;;;;11.14;84.66;98570.50;5109740;28;20201;-58
2022/11/05 02:10:12;;;;;;;1.80;1.60;;;;;;;11.09;84.10;98572.63;5110074;28;20225;-57
2022/11/05 02:12:42;;;;;;;1.47;1.13;;;;;;;11.04;83.74;98578.09;5110080;28;20201;-57
2022/11/05 02:15:13;;;;;;;3.63;2.83;;;;;;;10.94;83.94;98577.25;5110295;28;20232;-62
2022/11/05 02:17:51;;;;;;;2.63;2.07;;;;;;;10.99;83.70;98577.66;5110347;28;20237;-62
2022/11/05 02:20:41;;;;;;;1.53;1.23;;;;;;;10.97;83.51;98574.44;5110509;28;20225;-57
2022/11/05 02:23:41;;;;;;;3.93;1.77;;;;;;;10.94;83.46;98574.69;5109881;28;20193;-62
2022/11/05 02:26:46;;;;;;;2.23;1.63;;;;;;;10.94;83.18;98579.81;5110131;28;20729;-62
2022/11/05 02:29:45;;;;;;;1.87;1.10;;;;;;;10.91;83.65;98574.94;5109668;28;20224;-57
2022/11/05 02:32:22;;;;;;;1.80;1.50;;;;;;;10.81;83.48;98569.75;5084955;28;20197;-62
2022/11/05 02:34:55;;;;;;;1.77;1.17;;;;;;;10.74;84.57;98567.84;5110146;28;20223;-62
2022/11/05 02:37:33;;;;;;;2.20;0.90;;;;;;;10.74;86.23;98562.72;5109744;28;20267;-57
2022/11/05 02:40:06;;;;;;;1.43;1.27;;;;;;;10.82;85.87;98560.34;5109725;28;20692;-61
2022/11/05 02:42:43;;;;;;;2.27;2.03;;;;;;;11.00;85.24;98561.41;5109792;28;20197;-62
2022/11/05 02:45:21;;;;;;;1.60;1.50;;;;;;;10.88;85.37;98570.09;5110201;28;20312;-57
2022/11/05 02:47:55;;;;;;;1.37;1.13;;;;;;;10.78;85.69;98569.22;5109861;28;20204;-62
2022/11/05 02:50:30;;;;;;;1.87;1.63;;;;;;;10.82;85.67;98575.69;5110290;28;20221;-58
2022/11/05 02:53:01;;;;;;;1.13;1.03;;;;;;;10.81;85.63;98587.66;5109680;28;20208;-58
2022/11/05 02:55:34;;;;;;;1.30;1.23;;;;;;;10.82;85.99;98591.03;5109728;28;20282;-62
2022/11/05 02:58:03;;;;;;;1.60;1.50;;;;;;;10.78;86.20;98584.53;5109787;28;20260;-62
2022/11/05 03:00:44;;;;;;;3.90;1.60;;;;;;;10.82;85.76;98580.78;5109388;28;20218;-58
2022/11/05 03:03:16;;;;;;;2.97;1.43;;;;;;;10.95;85.72;98575.50;5109647;28;20189;-61
2022/11/05 03:05:54;;;;;;;1.13;0.93;;;;;;;10.92;85.68;98576.56;5109722;28;20301;-61
2022/11/05 03:08:36;;;;;;;4.27;1.83;;;;;;;10.90;86.03;98580.19;5109583;28;20254;-62
2022/11/05 03:11:12;;;;;;;1.07;1.07;;;;;;;10.99;85.98;98575.13;5109904;28;20181;-62
2022/11/05 03:13:52;;;;;;;1.53;1.20;;;;;;;10.99;85.88;98570.00;5109616;28;20672;-62
2022/11/05 03:16:26;;;;;;;1.67;1.57;;;;;;;10.83;86.66;98572.19;5109576;28;20312;-62
2022/11/05 03:19:03;;;;;;;2.53;1.77;;;;;;;10.72;86.86;98579.94;5109751;28;20197;-58
2022/11/05 03:21:45;;;;;;;1.80;1.20;;;;;;;10.69;87.35;98569.97;5109339;28;20197;-58
2022/11/05 03:24:16;;;;;;;2.27;1.33;;;;;;;10.69;87.56;98565.66;5109443;28;20312;-57
2022/11/05 03:26:49;;;;;;;1.70;1.60;;;;;;;10.83;86.95;98572.19;5109409;28;20665;-57
2022/11/05 03:29:20;;;;;;;2.40;1.63;;;;;;;10.92;86.65;98571.44;5109626;28;20228;-62
2022/11/05 03:31:50;;;;;;;1.93;1.67;;;;;;;10.95;85.79;98566.09;5109350;28;20197;-62
2022/11/05 03:34:22;;;;;;;4.20;1.40;;;;;;;10.88;85.99;98560.66;5109595;28;20214;-57
2022/11/05 03:36:54;;;;;;;3.30;2.07;;;;;;;10.87;86.24;98563.34;5109299;28;20232;-57
2022/11/05 03:39:28;;;;;;;1.87;1.73;;;;;;;10.84;86.30;98568.69;5111027;28;20217;-62
2022/11/05 03:41:56;;;;;;;1.53;0.97;;;;;;;10.84;86.66;98563.59;5112859;28;20201;-57
2022/11/05 03:44:29;;;;;;;2.30;1.30;;;;;;;10.86;86.52;98569.41;5113078;27;20282;-61
2022/11/05 03:47:02;;;;;;;2.17;1.80;;;;;;;10.94;85.95;98574.69;5112730;28;20228;-57
2022/11/05 03:49:36;;;;;;;1.27;1.10;;;;;;;10.92;85.57;98566.34;5112764;28;20225;-62
2022/11/05 03:52:08;;;;;;;0.90;0.83;;;;;;;10.92;85.74;98571.44;5112935;28;20709;-62
2022/11/05 03:54:35;;;;;;;1.57;1.10;;;;;;;10.86;85.74;98574.50;5112950;27;20220;-62
2022/11/05 03:57:08;;;;;;;1.63;1.50;;;;;;;10.82;85.84;98573.97;5112554;28;20236;-62
2022/11/05 03:59:40;;;;;;;3.37;1.33;;;;;;;10.81;85.68;98577.44;5112622;28;20221;-62
2022/11/05 04:02:07;;;;;;;1.37;1.27;;;;;;;10.81;85.55;98568.94;5112689;28;20193;-62
2022/11/05 04:04:35;;;;;;;1.27;1.17;;;;;;;10.64;85.66;98566.00;5112748;28;20225;-57
2022/11/05 04:15:15;;;;;;;1.53;1.43;;;;;;;10.45;87.08;98586.34;5112366;28;20675;-62
2022/11/05 04:17:41;;;;;;;3.00;1.37;;;;;;;10.45;87.11;98594.00;5111992;28;20233;-62
2022/11/05 04:25:44;;;;;;;1.03;1.03;;;;;;;10.51;86.40;98593.50;5112399;28;20259;-62
2022/11/05 04:28:11;;;;;;;2.57;1.97;;;;;;;10.52;86.02;98600.22;5111958;28;20685;-57
2022/11/05 04:30:37;;;;;;;2.23;1.63;;;;;;;10.53;86.04;98612.09;5112220;28;20715;-57
2022/11/05 04:33:06;;;;;;;1.73;1.43;;;;;;;10.52;86.08;98607.91;5111895;28;20193;-57
2022/11/05 04:35:36;;;;;;;1.80;1.63;;;;;;;10.56;86.19;98614.41;5111893;28;20221;-62
2022/11/05 04:38:05;;;;;;;2.63;1.63;;;;;;;10.15;87.83;98608.22;5111998;28;20228;-62
2022/11/05 04:40:32;;;;;;;3.13;1.30;;;;;;;9.98;89.07;98612.09;5111839;28;20229;-61
2022/11/05 04:42:58;;;;;;;1.53;1.43;;;;;;;10.01;88.90;98616.16;5111789;27;20231;-62
2022/11/05 04:45:27;;;;;;;1.37;1.27;;;;;;;10.10;88.79;98609.53;5111680;28;20217;-57
2022/11/05 04:47:54;;;;;;;2.43;1.97;;;;;;;10.09;88.71;98606.13;5111498;28;20216;-58
2022/11/05 04:50:21;;;;;;;1.10;1.10;;;;;;;10.03;88.74;98614.28;5110975;28;20225;-56
2022/11/05 04:52:49;;;;;;;1.47;0.70;;;;;;;10.08;89.40;98617.28;5111562;28;20220;-62
2022/11/05 04:55:16;;;;;;;1.37;1.27;;;;;;;10.07;88.99;98615.69;5111775;28;20224;-57
2022/11/05 04:57:43;;;;;;;2.03;1.50;;;;;;;10.11;88.63;98611.94;5111142;28;20229;-57
2022/11/05 05:00:10;;;;;;;2.37;1.77;;;;;;;10.10;88.44;98610.31;5111547;28;20239;-61
2022/11/05 05:02:37;;;;;;;1.23;0.77;;;;;;;10.10;88.26;98615.44;5111626;28;20247;-57
2022/11/05 05:05:06;;;;;;;1.27;1.17;;;;;;;10.10;87.99;98620.53;5111265;28;20658;-62
2022/11/05 05:07:33;;;;;;;3.23;1.83;;;;;;;10.13;87.88;98635.63;5111357;28;20215;-57
2022/11/05 05:10:02;;;;;;;2.73;2.30;;;;;;;10.22;87.07;98633.28;5111294;28;20649;-62
2022/11/05 05:12:31;;;;;;;1.43;1.07;;;;;;;10.01;87.36;98631.47;5111113;28;20569;-57
2022/11/05 05:14:58;;;;;;;3.13;1.63;;;;;;;10.01;88.01;98631.47;5111129;28;20228;-62
2022/11/05 05:17:25;;;;;;;1.50;1.40;;;;;;;9.93;88.17;98636.34;5111168;28;20237;-57
2022/11/05 05:22:36;;;;;;;3.33;1.73;;;;;;;10.07;87.86;98646.31;5110902;28;20664;-61
2022/11/05 05:25:05;;;;;;;1.30;1.20;;;;;;;10.12;87.49;98639.13;5111297;28;20225;-62
2022/11/05 05:27:32;;;;;;;1.80;1.50;;;;;;;10.15;87.60;98648.28;5110842;28;20205;-57
2022/11/05 05:29:59;;;;;;;1.50;1.40;;;;;;;10.18;87.50;98653.97;5110859;28;20662;-62
2022/11/05 05:32:26;;;;;;;3.97;1.93;;;;;;;10.32;86.96;98660.56;5110750;28;20266;-57
2022/11/05 05:34:53;;;;;;;3.10;2.07;;;;;;;10.33;87.12;98675.00;5110538;28;20236;-57
2022/11/05 05:37:20;;;;;;;3.40;1.83;;;;;;;10.32;87.77;98667.44;5110691;28;20243;-62
2022/11/05 05:39:47;;;;;;;1.83;1.57;;;;;;;10.28;87.80;98668.63;5110825;28;20740;-62
2022/11/05 05:42:15;;;;;;;2.53;1.70;;;;;;;10.28;88.38;98666.88;5110623;28;20201;-57
2022/11/05 05:44:42;;;;;;;2.73;2.10;;;;;;;10.40;87.93;98668.47;5110410;28;20217;-62
2022/11/05 05:47:09;;;;;;;1.40;1.30;;;;;;;10.59;88.07;98657.63;5110794;28;20197;-57
2022/11/05 05:49:36;;;;;;;2.30;2.10;;;;;;;10.73;87.68;98661.63;5110726;27;20217;-57
2022/11/05 05:52:02;;;;;;;2.90;1.80;;;;;;;10.73;87.61;98668.47;5110516;28;20197;-58
2022/11/05 05:54:29;;;;;;;1.00;1.00;;;;;;;10.81;87.93;98671.25;5110423;28;20244;-62
2022/11/05 05:56:56;;;;;;;1.63;1.10;;;;;;;10.89;87.72;98668.88;5110077;28;20229;-62
2022/11/05 05:59:25;;;;;;;4.10;1.50;;;;;;;11.06;87.86;98665.78;5110429;28;20217;-62
2022/11/05 06:01:51;;;;;;;3.13;1.93;;;;;;;11.30;87.16;98669.84;5109547;28;20206;-58
2022/11/05 06:04:18;;;;;;;2.80;2.03;;;;;;;11.49;86.70;98654.59;5110148;28;20232;-62
2022/11/05 06:06:45;;;;;;;5.10;2.90;;;;;;;11.69;86.70;98667.47;5110026;28;20217;-57
2022/11/05 06:09:13;;;;;;;2.10;1.77;;;;;;;11.86;86.16;98669.47;5110124;28;20343;-57
2022/11/05 06:11:40;;;;;;;1.30;1.20;;;;;;;12.00;84.71;98666.53;5110027;28;20748;-57
2022/11/05 06:14:10;;;;;;;2.20;1.50;;;;;;;12.28;84.32;98671.91;5110157;28;20256;-57
2022/11/05 06:16:38;;;;;;;1.93;1.43;;;;;;;12.51;83.93;98666.50;5110052;28;20205;-63
2022/11/05 06:19:05;;;;;;;1.70;1.60;;;;;;;12.72;83.08;98672.34;5110254;27;20228;-57
2022/11/05 06:21:32;;;;;;;4.17;2.53;;;;;;;12.88;83.11;98671.78;5110309;28;20201;-62
2022/11/05 06:24:00;;;;;;;11.17;5.07;;;;;;;13.00;82.08;98670.72;5110110;28;20221;-58
2022/11/05 06:26:27;;;;;;;4.33;2.27;;;;;;;13.23;80.38;98675.53;5109822;28;20197;-59
2022/11/05 06:28:53;;;;;;;7.70;2.50;;;;;;;13.48;79.08;98684.47;5109891;28;20197;-57
2022/11/05 06:31:20;;;;;;;2.60;2.40;;;;;;;13.75;78.58;98692.19;5109916;28;20197;-57
2022/11/05 06:33:48;;;;;;;9.43;5.37;;;;;;;13.98;76.98;98694.41;5109884;28;20194;-57
2022/11/05 06:36:17;;;;;;;4.73;3.47;;;;;;;14.15;76.31;98700.56;5110058;28;20666;-58
2022/11/05 06:38:43;;;;;;;4.60;2.13;;;;;;;14.29;76.22;98707.00;5109623;28;20227;-63
2022/11/05 06:41:10;;;;;;;7.40;3.50;;;;;;;14.67;75.17;98704.22;5109809;28;20198;-62
2022/11/05 06:43:38;;;;;;;4.83;3.30;;;;;;;15.06;74.10;98703.91;5109812;28;20195;-63
2022/11/05 06:46:05;;;;;;;5.60;2.00;;;;;;;15.50;72.72;98703.88;5109742;28;20192;-57
2022/11/05 06:48:32;;;;;;;4.87;3.17;;;;;;;15.92;69.82;98700.63;5109837;28;20204;-58
2022/11/05 06:51:00;;;;;;;4.13;2.53;;;;;;;16.30;69.61;98695.91;5109667;28;20237;-62
2022/11/05 06:53:27;;;;;;;5.13;2.40;;;;;;;16.63;67.43;98698.56;5109519;28;20198;-57
2022/11/05 06:55:54;;;;;;;1.90;1.80;;;;;;;17.03;67.01;98692.66;5109688;28;20282;-58
2022/11/05 06:58:21;;;;;;;2.63;2.23;;;;;;;17.39;64.83;98693.13;5109787;28;20311;-62
2022/11/05 07:00:47;;;;;;;4.03;2.20;;;;;;;17.64;63.24;98687.91;5109676;28;20225;-62
2022/11/05 07:03:14;;;;;;;2.23;1.67;;;;;;;17.81;62.21;98684.31;5110181;28;20246;-62
2022/11/05 07:05:45;;;;;;;3.77;2.10;;;;;;;17.82;60.86;98679.94;5110095;28;20225;-58
2022/11/05 07:08:13;;;;;;;3.10;2.23;;;;;;;17.86;61.16;98692.38;5109614;28;20212;-62
2022/11/05 07:10:40;;;;;;;3.17;2.13;;;;;;;17.92;60.93;98684.91;5109706;28;20275;-57
2022/11/05 07:13:07;;;;;;;2.97;1.77;;;;;;;18.00;60.54;98698.63;5109907;28;20681;-62
2022/11/05 07:15:33;;;;;;;4.00;2.17;;;;;;;17.96;60.79;98699.16;5113721;28;20223;-62
2022/11/05 07:18:01;;;;;;;3.17;2.33;;;;;;;18.04;60.06;98699.13;5113780;27;20678;-62
2022/11/05 07:20:28;;;;;;;2.93;1.93;;;;;;;18.24;59.68;98694.34;5113279;28;20689;-58
2022/11/05 07:23:01;;;;;;;2.03;1.83;;;;;;;18.23;60.10;98693.50;5113404;28;20199;-58
2022/11/05 07:25:32;;;;;;;2.80;2.30;;;;;;;18.33;59.17;98688.94;5113627;28;20223;-63
2022/11/05 07:27:59;;;;;;;4.40;2.07;;;;;;;18.43;59.35;98677.56;5113365;28;20282;-58
2022/11/05 07:30:26;;;;;;;1.60;1.47;;;;;;;18.56;59.11;98677.81;5113206;28;20349;-62
2022/11/05 07:32:52;;;;;;;3.47;2.30;;;;;;;18.89;57.98;98675.81;5113209;28;20667;-58
2022/11/05 07:35:19;;;;;;;1.90;1.67;;;;;;;19.31;56.88;98681.44;5113569;27;20228;-58
2022/11/05 07:37:48;;;;;;;2.90;2.20;;;;;;;19.49;56.08;98674.16;5113242;28;20319;-62
2022/11/05 07:40:17;;;;;;;3.97;2.90;;;;;;;19.65;55.35;98668.78;5113137;28;20221;-58
2022/11/05 07:42:46;;;;;;;3.10;2.07;;;;;;;19.51;54.02;98659.19;5113023;28;20300;-63
2022/11/05 07:45:13;;;;;;;4.80;2.40;;;;;;;19.86;54.14;98667.25;5113088;28;20737;-63
2022/11/05 07:47:46;;;;;;;3.00;2.50;;;;;;;19.98;53.12;98647.66;5112829;28;20267;-63
2022/11/05 07:50:13;;;;;;;2.20;1.93;;;;;;;20.12;53.63;98656.41;5113315;28;20232;-63
2022/11/05 07:52:40;;;;;;;2.50;2.07;;;;;;;20.19;52.08;98652.09;5112895;28;20196;-58
2022/11/05 07:55:08;;;;;;;4.60;2.90;;;;;;;20.34;52.03;98652.03;5112840;28;20220;-58
2022/11/05 07:57:41;;;;;;;4.37;2.70;;;;;;;20.57;51.74;98652.69;5113343;28;20289;-58
2022/11/05 08:00:12;;;;;;;3.83;2.47;;;;;;;20.63;51.64;98656.34;5112820;28;20315;-63
2022/11/05 08:02:39;;;;;;;4.03;2.57;;;;;;;20.49;51.58;98649.41;5112865;28;20310;-58
2022/11/05 08:05:06;;;;;;;3.17;2.10;;;;;;;20.45;51.32;98654.16;5112759;28;20718;-58
2022/11/05 08:07:33;;;;;;;3.23;2.57;;;;;;;20.85;51.14;98670.13;5112846;28;20636;-58
2022/11/05 08:10:02;;;;;;;4.60;2.57;;;;;;;20.77;50.39;98667.69;5112988;27;20220;-62
2022/11/05 08:12:29;;;;;;;3.60;2.30;;;;;;;20.62;49.93;98675.50;5112518;28;20209;-58
2022/11/05 08:14:55;;;;;;;4.17;2.50;;;;;;;21.06;50.32;98663.28;5112599;28;20361;-58
2022/11/05 08:17:24;;;;;;;3.87;2.43;;;;;;;21.10;49.18;98680.13;5112433;28;20657;-58
2022/11/05 08:19:50;;;;;;;3.23;2.20;;;;;;;21.47;49.20;98679.81;5112689;28;20588;-58
2022/11/05 08:22:17;;;;;;;6.80;2.53;;;;;;;21.02;49.75;98666.25;5112308;28;20263;-58
2022/11/05 08:24:44;;;;;;;3.90;3.20;;;;;;;21.42;49.08;98671.78;5111520;28;20669;-63
2022/11/05 08:27:11;;;;;;;3.70;2.53;;;;;;;21.60;49.24;98662.69;5111573;28;20239;-63
2022/11/05 08:29:37;;;;;;;3.63;2.40;;;;;;;21.74;47.72;98663.56;5112290;28;20224;-63
2022/11/05 08:32:04;;;;;;;4.03;2.83;;;;;;;21.47;48.24;98659.00;5112253;28;20765;-58
2022/11/05 08:34:32;;;;;;;5.30;2.60;;;;;;;21.17;48.58;98657.56;5112179;28;20224;-63
2022/11/05 08:37:00;;;;;;;3.37;2.53;;;;;;;21.09;49.71;98657.72;5112461;28;20665;-63
2022/11/05 08:39:27;;;;;;;4.30;2.87;;;;;;;21.11;49.06;98648.72;5111922;28;20232;-63
2022/11/05 08:41:54;;;;;;;4.53;3.40;;;;;;;20.91;49.31;98653.78;5111863;28;20231;-58
2022/11/05 08:44:20;;;;;;;5.00;3.13;;;;;;;20.88;49.77;98659.34;5111788;28;20723;-60
2022/11/05 08:46:47;;;;;;;4.57;2.60;;;;;;;20.93;49.77;98657.00;5111807;28;20207;-58
2022/11/05 08:49:14;;;;;;;3.60;2.73;;;;;;;20.88;49.76;98654.16;5111862;27;20795;-58
2022/11/05 08:51:43;;;;;;;4.83;2.97;;;;;;;20.73;50.62;98656.03;5111798;28;20262;-59
2022/11/05 08:54:10;;;;;;;5.87;3.00;;;;;;;20.72;50.95;98654.44;5111813;28;20224;-59
2022/11/05 08:56:37;;;;;;;4.63;2.40;;;;;;;20.85;49.78;98649.34;5111692;28;20230;-63
2022/11/05 08:59:04;;;;;;;4.63;2.73;;;;;;;20.91;49.63;98648.56;5111644;28;20230;-58
2022/11/05 09:01:32;;;;;;;5.13;3.00;;;;;;;21.13;49.72;98646.75;5111585;28;20197;-64
2022/11/05 09:03:58;;;;;;;4.97;3.23;;;;;;;21.56;48.88;98657.06;5111378;28;20223;-58
2022/11/05 09:06:25;;;;;;;7.30;2.90;;;;;;;21.66;48.03;98654.09;5111514;28;20200;-63
2022/11/05 09:08:53;;;;;;;4.03;2.97;;;;;;;21.73;47.67;98654.94;5111335;28;20673;-63
2022/11/05 09:11:20;;;;;;;5.23;2.80;;;;;;;21.51;47.82;98653.44;5111420;28;20198;-58
2022/11/05 09:13:47;;;;;;;6.20;2.90;;;;;;;21.43;48.39;98660.38;5111462;28;20196;-58
2022/11/05 09:16:20;;;;;;;5.93;2.40;;;;;;;21.29;48.55;98656.06;5111237;28;20747;-63
2022/11/05 09:18:48;;;;;;;4.27;2.57;;;;;;;20.89;49.16;98658.38;5111347;28;20232;-63
2022/11/05 09:21:14;;;;;;;3.23;2.40;;;;;;;20.37;50.37;98662.06;5111372;28;20199;-63
2022/11/05 09:23:41;;;;;;;3.37;2.00;;;;;;;20.27;51.48;98656.34;5111070;28;20206;-63
2022/11/05 09:26:10;;;;;;;4.87;2.37;;;;;;;20.06;52.23;98654.53;5111109;28;20200;-63
2022/11/05 09:28:37;;;;;;;4.10;2.33;;;;;;;20.13;52.07;98651.03;5110956;27;20202;-59
2022/11/05 09:31:07;;;;;;;5.47;2.63;;;;;;;20.21;52.26;98651.91;5111319;28;20747;-58
2022/11/05 09:33:35;;;;;;;4.73;2.37;;;;;;;20.07;52.51;98649.16;5110983;28;20282;-63
2022/11/05 09:36:02;;;;;;;4.67;2.40;;;;;;;19.84;52.65;98644.09;5111055;28;20676;-63
2022/11/05 09:38:29;;;;;;;3.07;2.00;;;;;;;20.00;53.57;98648.28;5110708;28;20241;-63
2022/11/05 09:40:59;;;;;;;4.43;2.40;;;;;;;20.22;52.67;98645.75;5110711;28;20321;-58
2022/11/05 09:43:34;;;;;;;5.40;3.07;;;;;;;20.19;52.42;98649.50;5111025;28;20207;-63
2022/11/05 09:46:11;;;;;;;4.70;2.23;;;;;;;20.21;51.92;98651.91;5110704;28;20309;-63
2022/11/05 09:48:40;;;;;;;5.60;2.47;;;;;;;19.99;52.66;98654.47;5110680;28;20194;-58
2022/11/05 09:51:09;;;;;;;4.33;2.40;;;;;;;19.83;53.90;98655.44;5110741;28;20225;-63
2022/11/05 09:53:40;;;;;;;5.70;3.73;;;;;;;19.87;53.96;98646.34;5110689;28;20199;-58
2022/11/05 09:56:19;;;;;;;7.40;2.97;;;;;;;19.93;54.64;98644.81;5110721;28;20198;-59
2022/11/05 09:58:51;;;;;;;4.73;2.80;;;;;;;20.20;52.76;98639.91;5110272;28;20313;-58
2022/11/05 10:01:22;;;;;;;4.80;3.00;;;;;;;20.66;53.33;98642.19;5110416;28;20680;-59
2022/11/05 10:03:53;;;;;;;4.63;2.87;;;;;;;21.08;51.71;98643.13;5110378;28;20607;-63
2022/11/05 10:06:24;;;;;;;3.17;2.33;;;;;;;21.19;50.80;98648.59;5110777;28;20200;-63
2022/11/05 10:08:55;;;;;;;5.40;3.40;;;;;;;21.55;50.62;98654.63;5110132;28;20250;-64
2022/11/05 10:11:28;;;;;;;4.80;3.07;;;;;;;21.94;49.83;98648.81;5110427;28;20203;-58
2022/11/05 10:14:02;;;;;;;4.50;2.73;;;;;;;22.26;49.16;98651.75;5110058;27;20200;-63
2022/11/05 10:16:32;;;;;;;5.93;4.17;;;;;;;22.67;48.84;98651.63;5110775;28;20214;-59
2022/11/05 10:19:05;;;;;;;5.00;2.93;;;;;;;22.65;48.56;98651.00;5110558;28;20321;-59
2022/11/05 10:21:32;;;;;;;6.23;3.83;;;;;;;22.41;48.56;98649.78;5111101;28;20201;-64
2022/11/05 10:23:59;;;;;;;6.20;3.13;;;;;;;22.70;47.91;98642.59;5110262;28;20273;-63
2022/11/05 10:26:27;;;;;;;4.93;3.37;;;;;;;22.81;47.23;98649.81;5110992;28;20196;-59
2022/11/05 10:28:56;;;;;;;6.22;3.33;;;;;;;23.02;47.15;98647.03;5110107;28;20205;-63
2022/11/05 10:31:23;;;;;;;5.50;3.50;;;;;;;22.62;47.29;98645.41;5110520;28;20193;-59
2022/11/05 10:33:54;;;;;;;6.90;3.72;;;;;;;22.68;47.10;98645.41;5109901;28;20635;-58
2022/11/05 10:36:25;;;;;;;5.27;2.80;;;;;;;22.82;47.09;98646.22;5110340;28;20235;-63
2022/11/05 10:38:53;;;;;;;6.03;3.22;;;;;;;23.04;47.37;98637.22;5109919;28;20751;-59
2022/11/05 10:41:37;;;;;;;4.75;3.10;;;;;;;23.17;46.71;98632.97;5110292;28;20201;-59
2022/11/05 10:44:17;;;;;;;5.30;3.38;;;;;;;23.00;46.78;98637.81;5110032;28;20236;-63
2022/11/05 10:46:51;;;;;;;4.85;2.92;;;;;;;23.17;47.66;98631.16;5110020;28;20254;-59
2022/11/05 10:49:28;;;;;;;5.93;2.88;;;;;;;23.37;46.71;98622.50;5111945;28;20220;-59
2022/11/05 10:51:59;;;;;;;6.97;3.40;;;;;;;23.37;46.58;98630.34;5113975;28;21039;-63
2022/11/05 10:54:33;;;;;;;5.97;3.47;;;;;;;23.41;46.76;98611.44;5113928;28;20225;-59
2022/11/05 10:57:00;;;;;;;3.63;2.95;;;;;;;23.69;46.31;98621.59;5115495;27;20205;-63
2022/11/05 10:59:30;;;;;;;5.85;3.08;;;;;;;23.63;45.84;98617.22;5112657;28;20369;-59
2022/11/05 11:02:00;;;;;;;4.60;2.67;;;;;;;23.81;45.93;98605.31;5112533;28;20724;-58
2022/11/05 11:04:28;;;;;;;4.22;2.85;;;;;;;23.48;46.19;98614.06;5113725;28;20431;-63
2022/11/05 11:06:58;;;;;;;5.90;2.85;;;;;;;23.53;46.63;98611.59;5113088;28;20251;-64
2022/11/05 11:09:28;;;;;;;4.60;2.97;;;;;;;23.54;46.98;98613.22;5113505;28;20221;-63
2022/11/05 11:12:00;;;;;;;3.50;2.63;;;;;;;23.50;46.89;98617.25;5113792;28;20206;-64
2022/11/05 11:14:29;;;;;;;5.15;2.90;;;;;;;23.57;47.02;98607.59;5113343;28;20278;-64
2022/11/05 11:17:16;;;;;;;4.32;2.63;;;;;;;23.76;46.42;98605.13;5113522;28;20246;-63
2022/11/05 11:19:43;;;;;;;3.53;2.30;;;;;;;23.64;46.64;98608.34;5113663;28;20225;-64
2022/11/05 11:22:19;;;;;;;3.20;2.30;;;;;;;23.64;46.60;98592.69;5113563;27;20209;-59
2022/11/05 11:24:48;;;;;;;3.75;2.40;;;;;;;23.66;46.38;98595.91;5113137;28;20724;-64
2022/11/05 11:27:17;;;;;;;4.20;2.78;;;;;;;23.64;46.06;98592.69;5113452;28;20204;-61
2022/11/05 11:29:51;;;;;;;4.50;2.90;;;;;;;23.35;46.51;98593.22;5113108;28;20270;-59
2022/11/05 11:32:20;;;;;;;3.63;2.35;;;;;;;23.09;46.99;98589.66;5113495;28;20202;-63
2022/11/05 11:34:51;;;;;;;3.83;2.58;;;;;;;22.99;47.82;98589.28;5113511;27;20266;-58
2022/11/05 11:37:23;;;;;;;3.55;2.72;;;;;;;22.72;47.92;98589.28;5113479;28;20288;-58
2022/11/05 11:39:54;;;;;;;3.60;2.60;;;;;;;22.38;48.40;98579.84;5113211;28;20229;-63
2022/11/05 11:42:40;;;;;;;2.50;2.00;;;;;;;22.05;48.94;98583.19;5113026;28;20193;-59
2022/11/05 11:45:27;;;;;;;3.33;1.73;;;;;;;21.86;49.66;98573.50;5113295;28;20221;-58
2022/11/05 11:47:56;;;;;;;3.70;2.37;;;;;;;21.74;50.46;98581.09;5112850;28;20239;-58
2022/11/05 11:50:35;;;;;;;3.70;2.23;;;;;;;21.73;50.29;98578.66;5112800;28;20234;-59
2022/11/05 11:53:26;;;;;;;4.50;2.30;;;;;;;21.88;50.03;98574.94;5112808;28;20257;-62
2022/11/05 11:55:59;;;;;;;5.13;2.47;;;;;;;22.04;49.91;98578.94;5112915;28;20750;-59
2022/11/05 11:58:38;;;;;;;4.97;2.53;;;;;;;22.45;49.97;98588.47;5112509;28;20796;-63
2022/11/05 12:01:20;;;;;;;7.57;3.43;;;;;;;22.66;48.25;98581.44;5112643;28;20208;-63
2022/11/05 12:03:51;;;;;;;4.00;2.13;;;;;;;22.99;48.41;98581.47;5112280;28;20250;-59
2022/11/05 12:06:26;;;;;;;4.30;2.33;;;;;;;23.11;48.10;98566.00;5112663;28;20258;-63
2022/11/05 12:09:04;;;;;;;3.33;2.57;;;;;;;22.80;48.18;98581.22;5112558;28;20204;-58
2022/11/05 12:11:38;;;;;;;6.97;3.25;;;;;;;22.85;49.12;98580.63;5112717;28;20193;-62
2022/11/05 12:14:18;;;;;;;5.53;2.78;;;;;;;22.81;48.49;98580.25;5112680;28;20215;-59
2022/11/05 12:17:11;;;;;;;5.20;2.60;;;;;;;22.74;48.47;98579.44;5112580;28;20204;-59
2022/11/05 12:19:53;;;;;;;2.83;2.27;;;;;;;22.82;48.65;98584.44;5108900;28;20228;-62
2022/11/05 12:22:30;;;;;;;3.72;2.42;;;;;;;22.89;47.96;98588.84;5110970;28;20742;-61
2022/11/05 12:25:11;;;;;;;4.82;2.42;;;;;;;22.88;48.38;98595.06;5112505;27;20531;-63
2022/11/05 12:27:55;;;;;;;3.92;2.47;;;;;;;22.82;47.91;98589.66;5112284;28;20197;-63
2022/11/05 12:30:23;;;;;;;4.55;2.50;;;;;;;22.71;48.23;98581.66;5112572;28;20274;-58
2022/11/05 12:33:21;;;;;;;4.83;2.50;;;;;;;22.53;48.64;98588.25;5112169;28;20734;-63
2022/11/05 12:36:06;;;;;;;3.28;2.38;;;;;;;22.69;48.54;98579.25;5106814;28;20274;-63